createdAt,value
2018-09-25T00:01:39.270Z,1.60
2018-09-25T00:03:50.547Z,1.60
2018-09-25T00:06:01.915Z,1.57
2018-09-25T00:08:13.749Z,1.60
2018-09-25T00:10:25.051Z,1.47
2018-09-25T00:12:36.031Z,1.20
2018-09-25T00:14:47.237Z,1.30
2018-09-25T00:16:58.533Z,1.67
2018-09-25T00:19:09.892Z,1.90
2018-09-25T00:21:21.788Z,1.67
2018-09-25T00:23:32.941Z,1.60
2018-09-25T00:25:44.667Z,1.67
2018-09-25T00:27:55.978Z,1.50
2018-09-25T00:30:07.234Z,1.83
2018-09-25T00:32:18.607Z,1.40
2018-09-25T00:34:29.789Z,1.50
2018-09-25T00:36:40.942Z,1.30
2018-09-25T00:38:52.170Z,1.87
2018-09-25T00:41:03.272Z,1.77
2018-09-25T00:43:14.831Z,1.50
2018-09-25T00:45:26.007Z,1.50
2018-09-25T00:47:37.083Z,1.53
2018-09-25T00:49:48.255Z,1.30
2018-09-25T00:52:00.014Z,1.50
2018-09-25T00:54:12.170Z,2.67
2018-09-25T00:56:23.483Z,1.70
2018-09-25T00:58:34.655Z,1.70
2018-09-25T01:00:45.976Z,1.50
2018-09-25T01:02:57.325Z,1.33
2018-09-25T01:05:08.600Z,1.50
2018-09-25T01:07:19.943Z,2.10
2018-09-25T01:09:31.213Z,1.70
2018-09-25T01:11:42.610Z,1.43
2018-09-25T01:13:54.275Z,1.70
2018-09-25T01:16:05.676Z,1.30
2018-09-25T01:18:16.855Z,1.53
2018-09-25T01:20:28.171Z,1.70
2018-09-25T01:22:39.827Z,1.40
2018-09-25T01:24:51.121Z,1.40
2018-09-25T01:27:02.439Z,1.80
2018-09-25T01:29:13.621Z,1.60
2018-09-25T01:31:24.823Z,1.50
2018-09-25T01:33:36.173Z,2.10
2018-09-25T01:35:47.729Z,1.70
2018-09-25T01:37:58.874Z,1.70
2018-09-25T01:40:10.095Z,1.60
2018-09-25T01:42:21.728Z,1.60
2018-09-25T01:44:33.621Z,1.60
2018-09-25T01:46:44.734Z,1.60
2018-09-25T01:48:55.962Z,1.50
2018-09-25T01:51:07.157Z,1.93
2018-09-25T01:53:18.763Z,1.80
2018-09-25T01:55:30.047Z,1.63
2018-09-25T01:57:41.910Z,2.10
2018-09-25T01:59:53.315Z,2.03
2018-09-25T02:02:04.634Z,1.70
2018-09-25T02:04:15.853Z,3.30
2018-09-25T02:06:27.035Z,2.80
2018-09-25T02:08:38.270Z,2.47
2018-09-25T02:10:49.356Z,1.70
2018-09-25T02:13:00.549Z,1.93
2018-09-25T02:15:11.996Z,1.50
2018-09-25T02:17:23.289Z,2.10
2018-09-25T02:19:34.723Z,2.50
2018-09-25T02:21:45.836Z,3.20
2018-09-25T02:23:57.207Z,2.67
2018-09-25T02:26:08.671Z,1.80
2018-09-25T02:28:21.489Z,1.70
2018-09-25T02:30:32.688Z,1.60
2018-09-25T02:32:44.132Z,1.60
2018-09-25T02:34:55.794Z,1.60
2018-09-25T02:37:06.985Z,1.60
2018-09-25T02:39:18.147Z,1.87
2018-09-25T02:41:29.224Z,1.90
2018-09-25T02:43:40.498Z,1.83
2018-09-25T02:45:52.314Z,2.10
2018-09-25T02:48:03.865Z,1.50
2018-09-25T02:50:15.108Z,1.70
2018-09-25T02:52:26.652Z,1.87
2018-09-25T02:54:37.880Z,2.03
2018-09-25T02:56:49.080Z,1.63
2018-09-25T02:59:00.362Z,2.10
2018-09-25T03:01:11.932Z,2.20
2018-09-25T03:03:23.520Z,2.10
2018-09-25T03:05:34.772Z,2.00
2018-09-25T03:07:46.020Z,2.17
2018-09-25T03:09:57.152Z,1.87
2018-09-25T03:12:08.400Z,1.93
2018-09-25T03:14:19.717Z,2.33
2018-09-25T03:16:31.101Z,1.73
2018-09-25T03:18:42.386Z,1.87
2018-09-25T03:20:53.703Z,1.50
2018-09-25T03:23:05.035Z,1.60
2018-09-25T03:25:17.706Z,1.80
2018-09-25T03:27:29.032Z,2.23
2018-09-25T03:29:40.928Z,1.67
2018-09-25T03:31:52.823Z,2.03
2018-09-25T03:34:04.220Z,1.60
2018-09-25T03:36:15.507Z,2.10
2018-09-25T03:38:26.878Z,2.17
2018-09-25T03:40:38.231Z,2.20
2018-09-25T03:42:49.595Z,2.03
2018-09-25T03:45:00.863Z,1.80
2018-09-25T03:47:12.327Z,2.07
2018-09-25T03:49:23.536Z,1.73
2018-09-25T03:51:34.714Z,1.77
2018-09-25T03:53:46.556Z,2.00
2018-09-25T03:55:58.128Z,1.87
2018-09-25T03:58:09.479Z,1.60
2018-09-25T04:00:20.513Z,1.90
2018-09-25T04:02:31.812Z,1.87
2018-09-25T04:04:43.082Z,2.60
2018-09-25T04:06:54.354Z,3.23
2018-09-25T04:09:06.346Z,1.90
2018-09-25T04:11:17.623Z,2.47
2018-09-25T04:13:28.884Z,2.00
2018-09-25T04:15:40.104Z,2.00
2018-09-25T04:17:51.362Z,1.60
2018-09-25T04:20:03.299Z,1.90
2018-09-25T04:22:15.070Z,1.83
2018-09-25T04:24:26.384Z,2.23
2018-09-25T04:26:37.802Z,2.53
2018-09-25T04:28:49.797Z,2.17
2018-09-25T04:31:01.212Z,2.17
2018-09-25T04:33:12.612Z,2.30
2018-09-25T04:35:23.801Z,2.00
2018-09-25T04:37:35.132Z,1.90
2018-09-25T04:39:46.418Z,1.80
2018-09-25T04:41:57.623Z,2.07
2018-09-25T04:44:08.883Z,1.50
2018-09-25T04:46:20.161Z,2.30
2018-09-25T04:48:31.732Z,2.00
2018-09-25T04:50:42.945Z,2.17
2018-09-25T04:52:54.331Z,2.40
2018-09-25T04:55:05.804Z,1.80
2018-09-25T04:57:17.315Z,2.20
2018-09-25T04:59:28.819Z,2.60
2018-09-25T05:01:40.125Z,1.93
2018-09-25T05:03:51.912Z,3.63
2018-09-25T05:06:03.067Z,3.10
2018-09-25T05:08:14.460Z,5.00
2018-09-25T05:10:26.513Z,7.50
2018-09-25T05:12:37.939Z,5.00
2018-09-25T05:14:48.989Z,6.70
2018-09-25T05:17:00.671Z,4.20
2018-09-25T05:19:12.472Z,3.30
2018-09-25T05:21:23.813Z,2.57
2018-09-25T05:23:35.194Z,2.50
2018-09-25T05:25:46.596Z,2.70
2018-09-25T05:27:57.903Z,2.50
2018-09-25T05:30:09.279Z,2.60
2018-09-25T05:32:20.653Z,2.30
2018-09-25T05:34:32.519Z,2.17
2018-09-25T05:36:43.921Z,2.30
2018-09-25T05:38:55.164Z,3.47
2018-09-25T05:41:07.111Z,2.70
2018-09-25T05:43:18.404Z,2.70
2018-09-25T05:45:29.668Z,2.43
2018-09-25T05:47:41.107Z,2.33
2018-09-25T05:49:52.567Z,3.00
2018-09-25T05:52:03.757Z,3.60
2018-09-25T05:54:15.024Z,2.80
2018-09-25T05:56:26.097Z,2.47
2018-09-25T05:58:37.489Z,2.17
2018-09-25T06:00:48.883Z,2.50
2018-09-25T06:03:00.887Z,2.30
2018-09-25T06:05:12.620Z,2.50
2018-09-25T06:07:24.404Z,2.30
2018-09-25T06:09:35.677Z,2.50
2018-09-25T06:11:46.904Z,2.70
2018-09-25T06:13:58.204Z,2.63
2018-09-25T06:16:09.592Z,2.20
2018-09-25T06:18:21.787Z,1.90
2018-09-25T06:20:33.220Z,2.30
2018-09-25T06:22:44.571Z,2.07
2018-09-25T06:24:56.424Z,2.33
2018-09-25T06:27:07.996Z,2.30
2018-09-25T06:29:19.404Z,2.20
2018-09-25T06:31:30.801Z,2.00
2018-09-25T06:33:42.000Z,3.37
2018-09-25T06:35:53.152Z,3.10
2018-09-25T06:38:04.469Z,2.30
2018-09-25T06:40:16.161Z,2.30
2018-09-25T06:42:27.678Z,1.93
2018-09-25T06:44:38.960Z,1.93
2018-09-25T06:46:50.296Z,2.33
2018-09-25T06:49:01.448Z,2.30
2018-09-25T06:51:12.554Z,2.30
2018-09-25T06:53:24.001Z,2.73
2018-09-25T06:55:35.324Z,2.97
2018-09-25T06:57:46.644Z,2.20
2018-09-25T06:59:58.424Z,2.10
2018-09-25T07:02:09.720Z,2.20
2018-09-25T07:04:21.090Z,2.83
2018-09-25T07:06:32.455Z,3.00
2018-09-25T07:08:44.813Z,2.57
2018-09-25T07:10:56.398Z,2.93
2018-09-25T07:13:07.937Z,3.27
2018-09-25T07:15:19.373Z,3.00
2018-09-25T07:17:30.939Z,2.53
2018-09-25T07:19:42.141Z,2.87
2018-09-25T07:21:53.445Z,2.83
2018-09-25T07:24:05.379Z,2.63
2018-09-25T07:26:16.744Z,2.40
2018-09-25T07:28:28.192Z,3.00
2018-09-25T07:30:39.404Z,2.13
2018-09-25T07:32:50.552Z,3.03
2018-09-25T07:35:01.973Z,2.80
2018-09-25T07:37:13.046Z,2.90
2018-09-25T07:39:24.411Z,3.37
2018-09-25T07:41:36.417Z,3.40
2018-09-25T07:43:47.593Z,2.63
2018-09-25T07:45:58.801Z,2.97
2018-09-25T07:50:38.059Z,2.97
2018-09-25T07:52:49.300Z,3.00
2018-09-25T07:55:00.712Z,2.70
2018-09-25T07:57:13.032Z,2.83
2018-09-25T07:59:24.393Z,2.80
2018-09-25T08:01:35.593Z,3.00
2018-09-25T08:03:46.790Z,2.43
2018-09-25T08:05:58.161Z,2.57
2018-09-25T08:08:09.580Z,2.60
2018-09-25T08:10:20.916Z,2.73
2018-09-25T08:12:32.401Z,2.47
2018-09-25T08:14:43.554Z,2.33
2018-09-25T08:16:54.929Z,2.30
2018-09-25T08:19:06.124Z,2.43
2018-09-25T08:21:17.451Z,2.80
2018-09-25T08:23:29.403Z,2.87
2018-09-25T08:25:40.935Z,2.90
2018-09-25T08:27:52.184Z,2.40
2018-09-25T08:30:03.297Z,2.40
2018-09-25T08:32:14.691Z,2.17
2018-09-25T08:34:26.051Z,2.83
2018-09-25T08:36:37.456Z,2.73
2018-09-25T08:38:48.877Z,2.57
2018-09-25T08:41:00.081Z,2.87
2018-09-25T08:43:11.779Z,2.87
2018-09-25T08:45:23.047Z,2.67
2018-09-25T08:47:34.254Z,2.80
2018-09-25T08:49:46.236Z,2.40
2018-09-25T08:51:57.782Z,1.77
2018-09-25T08:54:09.167Z,2.30
2018-09-25T08:56:20.487Z,2.20
2018-09-25T08:58:31.890Z,1.70
2018-09-25T09:00:44.043Z,1.67
2018-09-25T09:02:55.340Z,2.00
2018-09-25T09:05:06.469Z,1.83
2018-09-25T09:07:17.678Z,2.40
2018-09-25T09:09:28.854Z,2.03
2018-09-25T09:11:40.044Z,2.07
2018-09-25T09:13:51.198Z,1.93
2018-09-25T09:16:02.670Z,1.97
2018-09-25T09:18:14.177Z,2.27
2018-09-25T09:20:25.377Z,1.97
2018-09-25T09:22:36.811Z,1.67
2018-09-25T09:24:48.099Z,1.90
2018-09-25T09:26:59.508Z,1.80
2018-09-25T09:29:10.827Z,1.47
2018-09-25T09:31:22.096Z,1.80
2018-09-25T09:33:33.361Z,2.20
2018-09-25T09:35:44.791Z,1.50
2018-09-25T09:37:55.937Z,1.80
2018-09-25T09:40:07.100Z,1.37
2018-09-25T09:42:18.554Z,2.27
2018-09-25T09:44:30.072Z,1.33
2018-09-25T09:46:41.416Z,1.67
2018-09-25T09:48:52.848Z,1.57
2018-09-25T09:51:04.036Z,1.73
2018-09-25T09:53:15.506Z,1.40
2018-09-25T09:55:26.648Z,1.80
2018-09-25T09:57:37.812Z,1.43
2018-09-25T09:59:50.438Z,1.30
2018-09-25T10:02:01.593Z,1.50
2018-09-25T10:04:12.962Z,1.87
2018-09-25T10:06:24.670Z,1.50
2018-09-25T10:08:36.930Z,1.83
2018-09-25T10:10:48.058Z,1.43
2018-09-25T10:12:59.291Z,1.77
2018-09-25T10:15:10.710Z,1.53
2018-09-25T10:17:22.708Z,1.43
2018-09-25T10:19:33.998Z,1.63
2018-09-25T10:21:45.496Z,1.33
2018-09-25T10:23:56.707Z,1.97
2018-09-25T10:26:07.994Z,1.97
2018-09-25T10:28:19.181Z,1.73
2018-09-25T10:30:30.491Z,1.97
2018-09-25T10:32:41.756Z,2.00
2018-09-25T10:34:53.183Z,1.93
2018-09-25T10:37:04.552Z,1.50
2018-09-25T10:39:15.780Z,1.87
2018-09-25T10:41:27.785Z,1.70
2018-09-25T10:43:39.131Z,1.70
2018-09-25T10:45:50.494Z,1.50
2018-09-25T10:48:01.748Z,1.60
2018-09-25T10:50:13.205Z,1.80
2018-09-25T10:52:24.376Z,1.27
2018-09-25T10:54:35.586Z,1.50
2018-09-25T10:56:46.815Z,1.37
2018-09-25T10:58:58.754Z,1.27
2018-09-25T11:01:10.490Z,1.57
2018-09-25T11:03:21.968Z,1.50
2018-09-25T11:05:33.259Z,1.87
2018-09-25T11:07:44.391Z,1.83
2018-09-25T11:09:55.798Z,1.90
2018-09-25T11:12:06.986Z,1.70
2018-09-25T11:14:18.441Z,1.50
2018-09-25T11:16:29.856Z,2.23
2018-09-25T11:18:41.227Z,1.90
2018-09-25T11:20:53.055Z,1.67
2018-09-25T11:23:04.560Z,2.00
2018-09-25T11:25:16.562Z,1.60
2018-09-25T11:27:28.477Z,1.50
2018-09-25T11:29:39.833Z,1.80
2018-09-25T11:31:51.016Z,1.40
2018-09-25T11:34:02.290Z,2.07
2018-09-25T11:36:14.173Z,1.30
2018-09-25T11:38:25.560Z,1.23
2018-09-25T11:40:36.967Z,1.70
2018-09-25T11:42:49.445Z,1.40
2018-09-25T11:45:00.816Z,1.50
2018-09-25T11:47:12.189Z,1.83
2018-09-25T11:49:23.398Z,1.43
2018-09-25T11:51:35.122Z,1.60
2018-09-25T11:53:47.119Z,1.23
2018-09-25T11:55:58.284Z,1.90
2018-09-25T11:58:09.756Z,1.60
2018-09-25T12:00:21.744Z,2.03
2018-09-25T12:02:33.107Z,1.97
2018-09-25T12:04:45.037Z,1.30
2018-09-25T12:06:56.503Z,1.30
2018-09-25T12:09:07.768Z,1.53
2018-09-25T12:11:19.124Z,2.00
2018-09-25T12:13:30.286Z,1.80
2018-09-25T12:15:41.407Z,1.50
2018-09-25T12:17:52.874Z,1.57
2018-09-25T12:20:04.253Z,1.50
2018-09-25T12:22:15.420Z,2.10
2018-09-25T12:24:26.910Z,1.47
2018-09-25T12:26:38.560Z,1.47
2018-09-25T12:28:49.914Z,1.50
2018-09-25T12:31:01.190Z,1.43
2018-09-25T12:33:12.691Z,1.40
2018-09-25T12:35:24.169Z,1.20
2018-09-25T12:37:35.754Z,1.60
2018-09-25T12:39:46.974Z,1.47
2018-09-25T12:41:58.480Z,1.27
2018-09-25T12:44:09.972Z,1.20
2018-09-25T12:46:21.898Z,1.57
2018-09-25T12:48:33.261Z,1.40
2018-09-25T12:50:45.404Z,1.47
2018-09-25T12:52:57.663Z,1.70
2018-09-25T12:55:08.949Z,1.50
2018-09-25T12:57:20.417Z,1.10
2018-09-25T12:59:31.876Z,1.50
2018-09-25T13:01:43.255Z,1.60
2018-09-25T13:03:54.577Z,1.70
2018-09-25T13:06:05.920Z,1.33
2018-09-25T13:08:17.040Z,1.63
2018-09-25T13:10:28.376Z,1.10
2018-09-25T13:12:39.836Z,1.17
2018-09-25T13:14:51.080Z,1.43
2018-09-25T13:17:02.520Z,1.20
2018-09-25T13:19:14.029Z,1.60
2018-09-25T13:21:25.212Z,1.40
2018-09-25T13:23:37.492Z,1.27
2018-09-25T13:25:48.691Z,1.10
2018-09-25T13:28:00.142Z,1.40
2018-09-25T13:30:11.905Z,1.90
2018-09-25T13:32:23.121Z,1.10
2018-09-25T13:34:34.664Z,1.50
2018-09-25T13:36:46.655Z,2.50
2018-09-25T13:38:57.916Z,1.30
2018-09-25T13:41:09.186Z,1.53
2018-09-25T13:43:20.613Z,1.80
2018-09-25T13:45:31.838Z,1.63
2018-09-25T13:47:43.035Z,1.37
2018-09-25T13:49:54.288Z,1.47
2018-09-25T13:52:05.552Z,1.47
2018-09-25T13:54:17.612Z,1.37
2018-09-25T13:56:28.801Z,1.37
2018-09-25T13:58:40.053Z,1.37
2018-09-25T14:00:51.549Z,1.30
2018-09-25T14:03:02.983Z,1.40
2018-09-25T14:05:14.741Z,1.23
2018-09-25T14:07:26.104Z,1.77
2018-09-25T14:09:37.501Z,1.47
2018-09-25T14:11:49.159Z,1.20
2018-09-25T14:14:00.418Z,1.40
2018-09-25T14:16:12.121Z,1.80
2018-09-25T14:18:23.573Z,1.13
2018-09-25T14:20:34.812Z,1.40
2018-09-25T14:22:46.039Z,1.30
2018-09-25T14:24:57.282Z,1.50
2018-09-25T14:27:08.622Z,1.40
2018-09-25T14:29:20.210Z,1.30
2018-09-25T14:31:31.446Z,1.40
2018-09-25T14:33:42.684Z,1.40
2018-09-25T14:35:53.914Z,1.50
2018-09-25T14:38:05.142Z,1.67
2018-09-25T14:40:16.576Z,1.30
2018-09-25T14:42:28.514Z,1.10
2018-09-25T14:44:39.973Z,1.50
2018-09-25T14:46:51.153Z,1.00
2018-09-25T14:49:02.222Z,1.37
2018-09-25T14:51:13.699Z,1.10
2018-09-25T14:53:25.465Z,1.00
2018-09-25T14:55:37.003Z,1.30
2018-09-25T14:57:48.332Z,1.37
2018-09-25T14:59:59.568Z,1.30
2018-09-25T15:02:10.896Z,1.17
2018-09-25T15:04:22.320Z,1.33
2018-09-25T15:06:33.604Z,1.27
2018-09-25T15:08:44.897Z,1.30
2018-09-25T15:10:56.265Z,1.20
2018-09-25T15:13:07.661Z,1.07
2018-09-25T15:15:19.421Z,1.10
2018-09-25T15:17:30.637Z,1.47
2018-09-25T15:19:41.878Z,1.40
2018-09-25T15:21:53.423Z,1.40
2018-09-25T15:24:04.675Z,1.10
2018-09-25T15:26:15.907Z,1.37
2018-09-25T15:28:27.234Z,1.30
2018-09-25T15:30:38.649Z,1.30
2018-09-25T15:32:49.675Z,1.50
2018-09-25T15:35:00.877Z,1.30
2018-09-25T15:37:12.379Z,1.20
2018-09-25T15:39:23.764Z,1.20
2018-09-25T15:41:35.095Z,1.20
2018-09-25T15:43:47.096Z,1.10
2018-09-25T15:45:58.551Z,1.50
2018-09-25T15:48:10.440Z,1.33
2018-09-25T15:50:21.661Z,1.20
2018-09-25T15:52:33.225Z,2.33
2018-09-25T15:54:45.583Z,1.37
2018-09-25T15:56:56.879Z,1.20
2018-09-25T15:59:08.116Z,1.43
2018-09-25T16:01:19.604Z,1.63
2018-09-25T16:03:30.877Z,1.50
2018-09-25T16:05:42.226Z,1.30
2018-09-25T16:07:53.665Z,1.83
2018-09-25T16:10:04.919Z,1.40
2018-09-25T16:12:16.160Z,1.50
2018-09-25T16:14:27.311Z,1.27
2018-09-25T16:16:38.821Z,1.43
2018-09-25T16:18:50.241Z,1.60
2018-09-25T16:21:01.596Z,1.30
2018-09-25T16:23:13.005Z,1.60
2018-09-25T16:25:24.457Z,1.50
2018-09-25T16:27:35.619Z,1.33
2018-09-25T16:29:47.077Z,1.57
2018-09-25T16:31:58.669Z,1.10
2018-09-25T16:34:09.881Z,1.20
2018-09-25T16:36:21.195Z,1.27
2018-09-25T16:38:32.449Z,1.57
2018-09-25T16:40:43.713Z,1.80
2018-09-25T16:42:55.092Z,1.50
2018-09-25T16:45:06.782Z,1.40
2018-09-25T16:47:18.036Z,1.60
2018-09-25T16:49:29.219Z,1.77
2018-09-25T16:51:40.678Z,1.60
2018-09-25T16:53:51.983Z,1.60
2018-09-25T16:56:03.192Z,1.87
2018-09-25T16:58:17.303Z,1.40
2018-09-25T17:00:28.742Z,1.30
2018-09-25T17:02:40.590Z,1.40
2018-09-25T17:04:51.850Z,1.27
2018-09-25T17:07:03.296Z,1.23
2018-09-25T17:09:15.312Z,1.50
2018-09-25T17:11:26.731Z,2.20
2018-09-25T17:13:38.568Z,1.37
2018-09-25T17:15:50.393Z,1.47
2018-09-25T17:18:01.638Z,1.63
2018-09-25T17:20:12.920Z,1.27
2018-09-25T17:22:24.452Z,1.50
2018-09-25T17:24:35.737Z,1.70
2018-09-25T17:26:47.136Z,1.90
2018-09-25T17:28:58.457Z,2.03
2018-09-25T17:31:09.907Z,1.90
2018-09-25T17:33:21.244Z,1.80
2018-09-25T17:35:32.708Z,1.60
2018-09-25T17:37:44.093Z,1.77
2018-09-25T17:39:55.451Z,1.77
2018-09-25T17:42:06.795Z,2.00
2018-09-25T17:44:18.208Z,2.37
2018-09-25T17:46:29.528Z,2.73
2018-09-25T17:48:40.832Z,4.20
2018-09-25T17:50:52.073Z,4.50
2018-09-25T17:53:03.540Z,5.67
2018-09-25T17:55:14.699Z,4.73
2018-09-25T17:57:26.004Z,6.37
2018-09-25T17:59:37.394Z,5.87
2018-09-25T18:01:48.811Z,4.20
2018-09-25T18:04:00.121Z,3.50
2018-09-25T18:06:11.531Z,2.70
2018-09-25T18:08:22.965Z,2.20
2018-09-25T18:10:34.368Z,1.70
2018-09-25T18:12:46.304Z,1.80
2018-09-25T18:14:57.469Z,2.00
2018-09-25T18:17:08.857Z,1.50
2018-09-25T18:19:20.117Z,1.50
2018-09-25T18:21:31.665Z,1.67
2018-09-25T18:23:42.921Z,2.00
2018-09-25T18:25:54.462Z,1.70
2018-09-25T18:28:05.754Z,2.20
2018-09-25T18:30:16.972Z,2.10
2018-09-25T18:32:28.414Z,1.80
2018-09-25T18:34:39.654Z,1.73
2018-09-25T18:36:50.953Z,1.97
2018-09-25T18:39:02.452Z,2.60
2018-09-25T18:41:13.861Z,2.20
2018-09-25T18:43:25.073Z,2.00
2018-09-25T18:45:36.573Z,1.90
2018-09-25T18:47:48.323Z,1.73
2018-09-25T18:49:59.503Z,2.20
2018-09-25T18:52:10.814Z,2.10
2018-09-25T18:54:22.205Z,1.60
2018-09-25T18:56:34.353Z,1.80
2018-09-25T18:58:45.844Z,2.23
2018-09-25T19:00:57.179Z,1.67
2018-09-25T19:03:08.740Z,1.77
2018-09-25T19:05:20.140Z,1.93
2018-09-25T19:07:31.392Z,1.70
2018-09-25T19:09:43.561Z,1.70
2018-09-25T19:11:55.777Z,1.80
2018-09-25T19:14:07.115Z,2.10
2018-09-25T19:16:18.326Z,1.80
2018-09-25T19:18:29.728Z,1.90
2018-09-25T19:20:41.089Z,1.60
2018-09-25T19:22:53.076Z,1.60
2018-09-25T19:25:04.256Z,1.60
2018-09-25T19:27:15.392Z,1.50
2018-09-25T19:29:26.663Z,1.27
2018-09-25T19:31:38.072Z,1.90
2018-09-25T19:33:49.366Z,1.90
2018-09-25T19:36:00.984Z,1.43
2018-09-25T19:38:12.697Z,1.33
2018-09-25T19:40:24.169Z,1.40
2018-09-25T19:42:36.294Z,1.33
2018-09-25T19:44:47.808Z,1.30
2018-09-25T19:46:59.927Z,1.70
2018-09-25T19:49:11.491Z,1.80
2018-09-25T19:51:22.897Z,1.57
2018-09-25T19:53:34.249Z,1.67
2018-09-25T19:55:46.407Z,1.33
2018-09-25T19:57:57.720Z,1.57
2018-09-25T20:00:08.899Z,1.50
2018-09-25T20:02:20.042Z,1.30
2018-09-25T20:04:31.929Z,2.33
2018-09-25T20:06:43.267Z,1.37
2018-09-25T20:08:54.593Z,1.30
2018-09-25T20:11:05.879Z,1.60
2018-09-25T20:13:17.360Z,1.83
2018-09-25T20:15:29.022Z,1.40
2018-09-25T20:17:40.677Z,1.40
2018-09-25T20:19:52.029Z,1.40
2018-09-25T20:22:03.281Z,1.47
2018-09-25T20:24:14.711Z,2.10
2018-09-25T20:26:25.976Z,1.37
2018-09-25T20:28:37.518Z,1.87
2018-09-25T20:30:49.466Z,1.40
2018-09-25T20:33:01.512Z,1.70
2018-09-25T20:35:12.869Z,1.90
2018-09-25T20:37:24.026Z,1.53
2018-09-25T20:39:35.335Z,1.83
2018-09-25T20:41:46.648Z,1.43
2018-09-25T20:43:58.028Z,1.47
2018-09-25T20:46:09.488Z,1.20
2018-09-25T20:48:20.807Z,1.80
2018-09-25T20:50:32.629Z,1.30
2018-09-25T20:52:44.223Z,1.80
2018-09-25T20:54:55.513Z,1.77
2018-09-25T20:57:07.016Z,1.20
2018-09-25T20:59:18.395Z,1.53
2018-09-25T21:01:29.684Z,1.50
2018-09-25T21:03:41.288Z,1.60
2018-09-25T21:05:52.710Z,1.60
2018-09-25T21:08:04.078Z,1.50
2018-09-25T21:10:15.284Z,2.73
2018-09-25T21:12:26.510Z,1.47
2018-09-25T21:14:37.648Z,1.50
2018-09-25T21:16:50.757Z,1.60
2018-09-25T21:19:02.496Z,1.30
2018-09-25T21:21:13.883Z,1.60
2018-09-25T21:23:25.272Z,2.80
2018-09-25T21:25:36.518Z,1.33
2018-09-25T21:27:47.935Z,1.60
2018-09-25T21:29:59.427Z,1.30
2018-09-25T21:32:12.415Z,1.80
2018-09-25T21:34:23.860Z,1.50
2018-09-25T21:36:35.219Z,1.67
2018-09-25T21:38:46.498Z,1.60
2018-09-25T21:40:57.912Z,1.60
2018-09-25T21:43:10.000Z,1.60
2018-09-25T21:45:21.311Z,1.27
2018-09-25T21:47:32.472Z,1.60
2018-09-25T21:49:43.781Z,2.10
2018-09-25T21:51:55.914Z,1.97
2018-09-25T21:54:07.043Z,1.50
2018-09-25T21:56:18.667Z,1.77
2018-09-25T21:58:30.104Z,1.80
2018-09-25T22:00:41.462Z,2.10
2018-09-25T22:02:53.284Z,2.20
2018-09-25T22:05:04.407Z,1.60
2018-09-25T22:07:15.791Z,1.60
2018-09-25T22:09:27.051Z,1.70
2018-09-25T22:11:38.522Z,1.57
2018-09-25T22:13:49.859Z,1.43
2018-09-25T22:16:01.244Z,1.70
2018-09-25T22:18:12.473Z,1.20
2018-09-25T22:20:23.621Z,1.60
2018-09-25T22:22:35.048Z,1.80
2018-09-25T22:24:47.138Z,1.80
2018-09-25T22:26:58.213Z,1.90
2018-09-25T22:29:09.390Z,1.73
2018-09-25T22:31:20.629Z,1.53
2018-09-25T22:33:32.115Z,1.87
2018-09-25T22:35:43.385Z,1.70
2018-09-25T22:37:54.751Z,2.00
2018-09-25T22:40:06.196Z,2.57
2018-09-25T22:42:17.899Z,2.70
2018-09-25T22:44:29.709Z,2.50
2018-09-25T22:46:41.053Z,2.70
2018-09-25T22:48:52.165Z,2.30
2018-09-25T22:51:03.564Z,2.27
2018-09-25T22:53:14.971Z,2.00
2018-09-25T22:55:26.306Z,1.73
2018-09-25T22:57:37.781Z,2.50
2018-09-25T22:59:49.241Z,1.70
2018-09-25T23:02:00.912Z,1.90
2018-09-25T23:04:12.359Z,3.17
2018-09-25T23:06:24.285Z,1.90
2018-09-25T23:08:36.413Z,1.40
2018-09-25T23:10:47.746Z,1.87
2018-09-25T23:12:59.212Z,1.50
2018-09-25T23:15:10.680Z,1.77
2018-09-25T23:17:22.513Z,2.03
2018-09-25T23:19:33.888Z,2.90
2018-09-25T23:21:45.212Z,3.83
2018-09-25T23:23:57.824Z,8.90
2018-09-25T23:26:09.338Z,10.20
2018-09-25T23:28:20.574Z,8.67
2018-09-25T23:30:31.915Z,5.50
2018-09-25T23:32:43.327Z,3.83
2018-09-25T23:34:54.493Z,2.80
2018-09-25T23:37:05.861Z,2.33
2018-09-25T23:39:17.113Z,2.60
2018-09-25T23:41:32.961Z,2.60
2018-09-25T23:43:44.196Z,2.77
2018-09-25T23:45:56.610Z,2.80
2018-09-25T23:48:11.143Z,3.07
2018-09-25T23:50:22.955Z,2.63
2018-09-25T23:52:33.186Z,2.10
2018-09-25T23:54:49.576Z,2.57
2018-09-25T23:57:06.203Z,2.33
2018-09-25T23:59:18.071Z,2.50
